Portada
METAR-TAF:

METAR-TAF

Aeroports :

Uherské Hradiště, República Txeca

latitud: 49-01-46N, longitud: 017-26-23E, altitud: 177 m

Observació

L'informe es va fer fa 10 hores i 53 minuts, a les 15:00 UTC
Vent 8 kt del Sud/Sud-Oest
Temperatura -1°C
Humitat 80%
Pressió 1025 hPa
Visibilitat 10 km o més
Núvols disperses a una alçada de 1100 ft
Cel ennuvolat a una alçada de 1300 ft

METAR: LKKU 241500Z 21008KT 9999 SCT011 BKN013 M01/M04 Q1025

Hora: 02:53 (01:53 UTC)


TAF: manca

Observacions i pronòstics meteorològics de més de 4000 aeroports (METAR i TAF).

Les estacions disponibles són els punts grocs i vermells al mapa.

Posi el ratolí al punt desitjat per veure el nom de l'estació.

Feu clic per veure les observacions i els pronòstics meteorològics.

Per canviar el mapa: feu clic els botons verds amb una creu de color negre per apropar; al botó verd amb un guió per allunyar la imatge; o en les fletxes verdes per a mapes adjacents.


METAR-TAF: